sensor_id;sensor_type;location;lat;lon;timestamp;temperature;humidity
1534;DHT22;760;48.822;9.304;2023-06-22T04:04:11;19.20;99.90
1534;DHT22;760;48.822;9.304;2023-06-22T04:06:38;19.30;99.90
1534;DHT22;760;48.822;9.304;2023-06-22T04:09:05;19.40;99.90
1534;DHT22;760;48.822;9.304;2023-06-22T04:11:30;19.40;99.90
1534;DHT22;760;48.822;9.304;2023-06-22T04:13:56;19.40;99.90
1534;DHT22;760;48.822;9.304;2023-06-22T04:16:22;19.50;99.90
1534;DHT22;760;48.822;9.304;2023-06-22T04:18:47;19.60;99.90
1534;DHT22;760;48.822;9.304;2023-06-22T04:21:13;19.70;99.90
1534;DHT22;760;48.822;9.304;2023-06-22T04:23:39;19.80;99.90
1534;DHT22;760;48.822;9.304;2023-06-22T04:26:04;20.00;99.90
1534;DHT22;760;48.822;9.304;2023-06-22T04:28:30;20.10;99.90
1534;DHT22;760;48.822;9.304;2023-06-22T04:31:03;20.20;99.90
1534;DHT22;760;48.822;9.304;2023-06-22T04:33:29;20.30;99.90
1534;DHT22;760;48.822;9.304;2023-06-22T04:35:55;20.40;99.90
1534;DHT22;760;48.822;9.304;2023-06-22T04:38:23;20.50;99.90
1534;DHT22;760;48.822;9.304;2023-06-22T04:40:49;20.60;99.90
1534;DHT22;760;48.822;9.304;2023-06-22T04:43:14;20.80;99.90
1534;DHT22;760;48.822;9.304;2023-06-22T04:45:40;20.90;99.90
1534;DHT22;760;48.822;9.304;2023-06-22T04:48:06;21.00;99.90
1534;DHT22;760;48.822;9.304;2023-06-22T04:50:32;21.20;99.90
1534;DHT22;760;48.822;9.304;2023-06-22T04:52:57;21.30;99.90
1534;DHT22;760;48.822;9.304;2023-06-22T04:55:24;21.40;99.90
1534;DHT22;760;48.822;9.304;2023-06-22T04:57:51;21.50;99.90
1534;DHT22;760;48.822;9.304;2023-06-22T05:00:21;21.60;99.90
1534;DHT22;760;48.822;9.304;2023-06-22T05:02:48;21.70;99.90
1534;DHT22;760;48.822;9.304;2023-06-22T05:05:14;21.80;99.90
1534;DHT22;760;48.822;9.304;2023-06-22T05:07:44;21.90;99.90
1534;DHT22;760;48.822;9.304;2023-06-22T05:10:11;21.90;99.90
1534;DHT22;760;48.822;9.304;2023-06-22T05:12:41;22.00;99.90
1534;DHT22;760;48.822;9.304;2023-06-22T05:15:08;21.90;99.90
1534;DHT22;760;48.822;9.304;2023-06-22T05:17:34;22.00;99.90
1534;DHT22;760;48.822;9.304;2023-06-22T05:20:00;22.10;99.90
1534;DHT22;760;48.822;9.304;2023-06-22T05:22:26;22.10;99.90
1534;DHT22;760;48.822;9.304;2023-06-22T05:24:52;22.20;99.90
1534;DHT22;760;48.822;9.304;2023-06-22T05:27:17;22.30;99.90
1534;DHT22;760;48.822;9.304;2023-06-22T05:29:43;22.40;99.90
1534;DHT22;760;48.822;9.304;2023-06-22T05:32:09;22.50;99.90
1534;DHT22;760;48.822;9.304;2023-06-22T05:34:34;22.70;99.90
1534;DHT22;760;48.822;9.304;2023-06-22T05:37:00;22.80;99.90
1534;DHT22;760;48.822;9.304;2023-06-22T05:39:26;22.80;99.90
1534;DHT22;760;48.822;9.304;2023-06-22T05:41:52;22.90;99.90
1534;DHT22;760;48.822;9.304;2023-06-22T05:44:18;23.10;99.90
1534;DHT22;760;48.822;9.304;2023-06-22T05:46:44;23.30;99.90
1534;DHT22;760;48.822;9.304;2023-06-22T05:49:12;23.40;99.90
1534;DHT22;760;48.822;9.304;2023-06-22T05:51:38;23.50;99.90
1534;DHT22;760;48.822;9.304;2023-06-22T05:54:03;23.60;99.90
1534;DHT22;760;48.822;9.304;2023-06-22T05:56:29;23.70;99.90
1534;DHT22;760;48.822;9.304;2023-06-22T05:58:55;23.80;99.90
1534;DHT22;760;48.822;9.304;2023-06-22T06:01:20;23.80;99.90
1534;DHT22;760;48.822;9.304;2023-06-22T06:03:46;24.00;99.90
1534;DHT22;760;48.822;9.304;2023-06-22T06:06:12;24.10;99.90
1534;DHT22;760;48.822;9.304;2023-06-22T06:08:38;24.30;99.90
1534;DHT22;760;48.822;9.304;2023-06-22T06:11:04;24.40;99.90
1534;DHT22;760;48.822;9.304;2023-06-22T06:13:30;24.50;99.90
1534;DHT22;760;48.822;9.304;2023-06-22T06:15:56;24.60;99.90
1534;DHT22;760;48.822;9.304;2023-06-22T06:18:22;24.60;99.90
1534;DHT22;760;48.822;9.304;2023-06-22T06:20:48;24.60;99.90
1534;DHT22;760;48.822;9.304;2023-06-22T06:23:13;24.70;99.90
1534;DHT22;760;48.822;9.304;2023-06-22T06:25:39;24.70;99.90
1534;DHT22;760;48.822;9.304;2023-06-22T06:28:05;24.70;99.90
1534;DHT22;760;48.822;9.304;2023-06-22T06:30:31;24.60;99.90
1534;DHT22;760;48.822;9.304;2023-06-22T06:32:57;24.60;99.90
1534;DHT22;760;48.822;9.304;2023-06-22T06:35:23;24.60;99.90
1534;DHT22;760;48.822;9.304;2023-06-22T06:37:49;24.70;99.90
1534;DHT22;760;48.822;9.304;2023-06-22T06:40:16;24.80;99.90
1534;DHT22;760;48.822;9.304;2023-06-22T06:42:45;24.90;99.90
1534;DHT22;760;48.822;9.304;2023-06-22T06:45:21;25.00;99.90
1534;DHT22;760;48.822;9.304;2023-06-22T06:47:51;25.10;99.90
1534;DHT22;760;48.822;9.304;2023-06-22T06:50:17;25.10;99.90
1534;DHT22;760;48.822;9.304;2023-06-22T06:52:43;25.20;99.90
1534;DHT22;760;48.822;9.304;2023-06-22T06:55:09;25.30;99.90
1534;DHT22;760;48.822;9.304;2023-06-22T06:57:39;25.50;99.90
1534;DHT22;760;48.822;9.304;2023-06-22T07:00:12;25.60;99.90
1534;DHT22;760;48.822;9.304;2023-06-22T07:02:43;25.80;99.90
1534;DHT22;760;48.822;9.304;2023-06-22T07:05:10;26.00;99.90
1534;DHT22;760;48.822;9.304;2023-06-22T07:07:36;26.10;99.90
1534;DHT22;760;48.822;9.304;2023-06-22T07:10:02;26.10;99.90
1534;DHT22;760;48.822;9.304;2023-06-22T07:12:28;26.20;99.90
1534;DHT22;760;48.822;9.304;2023-06-22T07:15:00;26.40;99.90
1534;DHT22;760;48.822;9.304;2023-06-22T07:17:26;26.40;99.90
1534;DHT22;760;48.822;9.304;2023-06-22T07:19:52;26.50;99.90
1534;DHT22;760;48.822;9.304;2023-06-22T07:22:17;26.60;99.90
1534;DHT22;760;48.822;9.304;2023-06-22T07:24:43;26.70;99.90
1534;DHT22;760;48.822;9.304;2023-06-22T07:27:08;26.90;99.90
1534;DHT22;760;48.822;9.304;2023-06-22T07:29:36;27.20;99.90
1534;DHT22;760;48.822;9.304;2023-06-22T07:32:03;27.60;99.90
1534;DHT22;760;48.822;9.304;2023-06-22T07:34:30;27.90;99.90
1534;DHT22;760;48.822;9.304;2023-06-22T07:36:56;28.30;99.90
1534;DHT22;760;48.822;9.304;2023-06-22T07:39:21;29.10;99.90
1534;DHT22;760;48.822;9.304;2023-06-22T07:41:52;29.90;98.50
1534;DHT22;760;48.822;9.304;2023-06-22T07:44:17;30.50;97.60
1534;DHT22;760;48.822;9.304;2023-06-22T07:46:43;31.40;96.90
1534;DHT22;760;48.822;9.304;2023-06-22T07:49:08;32.30;94.10
1534;DHT22;760;48.822;9.304;2023-06-22T07:51:34;33.00;91.70
1534;DHT22;760;48.822;9.304;2023-06-22T07:54:00;33.50;91.00
1534;DHT22;760;48.822;9.304;2023-06-22T07:56:25;33.90;90.60
1534;DHT22;760;48.822;9.304;2023-06-22T07:58:51;34.50;88.80
1534;DHT22;760;48.822;9.304;2023-06-22T08:01:17;34.80;86.60
1534;DHT22;760;48.822;9.304;2023-06-22T08:03:44;34.90;84.50
1534;DHT22;760;48.822;9.304;2023-06-22T08:06:10;35.00;85.20
1534;DHT22;760;48.822;9.304;2023-06-22T08:08:36;35.30;83.80
1534;DHT22;760;48.822;9.304;2023-06-22T08:11:02;35.60;82.30
1534;DHT22;760;48.822;9.304;2023-06-22T08:13:27;35.60;81.20
1534;DHT22;760;48.822;9.304;2023-06-22T08:15:53;35.60;81.00
1534;DHT22;760;48.822;9.304;2023-06-22T08:18:19;35.80;79.20
1534;DHT22;760;48.822;9.304;2023-06-22T08:20:44;35.80;80.00
1534;DHT22;760;48.822;9.304;2023-06-22T08:23:10;36.00;79.60
1534;DHT22;760;48.822;9.304;2023-06-22T08:25:36;36.70;78.50
1534;DHT22;760;48.822;9.304;2023-06-22T08:28:03;37.60;76.10
1534;DHT22;760;48.822;9.304;2023-06-22T08:30:29;38.00;74.10
1534;DHT22;760;48.822;9.304;2023-06-22T08:32:54;38.10;72.80
1534;DHT22;760;48.822;9.304;2023-06-22T08:35:24;37.60;71.80
1534;DHT22;760;48.822;9.304;2023-06-22T08:37:50;37.10;71.90
1534;DHT22;760;48.822;9.304;2023-06-22T08:40:18;36.60;72.60
1534;DHT22;760;48.822;9.304;2023-06-22T08:42:45;36.00;74.10
1534;DHT22;760;48.822;9.304;2023-06-22T08:45:12;35.50;75.70
1534;DHT22;760;48.822;9.304;2023-06-22T08:47:38;35.20;78.40
1534;DHT22;760;48.822;9.304;2023-06-22T08:50:04;35.60;79.20
1534;DHT22;760;48.822;9.304;2023-06-22T08:52:30;36.00;77.90
1534;DHT22;760;48.822;9.304;2023-06-22T08:54:56;36.40;76.90
1534;DHT22;760;48.822;9.304;2023-06-22T08:57:23;36.50;74.50
1534;DHT22;760;48.822;9.304;2023-06-22T08:59:49;36.00;73.80
1534;DHT22;760;48.822;9.304;2023-06-22T09:02:17;35.80;74.70
1534;DHT22;760;48.822;9.304;2023-06-22T09:04:43;35.40;75.10
1534;DHT22;760;48.822;9.304;2023-06-22T09:07:08;35.20;76.70
1534;DHT22;760;48.822;9.304;2023-06-22T09:09:34;35.30;78.80
1534;DHT22;760;48.822;9.304;2023-06-22T09:11:59;36.00;78.70
1534;DHT22;760;48.822;9.304;2023-06-22T09:14:25;36.60;75.10
1534;DHT22;760;48.822;9.304;2023-06-22T09:16:51;37.00;74.00
1534;DHT22;760;48.822;9.304;2023-06-22T09:19:16;37.30;73.40
1534;DHT22;760;48.822;9.304;2023-06-22T09:21:42;37.40;73.00
1534;DHT22;760;48.822;9.304;2023-06-22T09:24:07;37.60;73.70
1534;DHT22;760;48.822;9.304;2023-06-22T09:26:33;37.70;72.80
1534;DHT22;760;48.822;9.304;2023-06-22T09:28:59;38.00;71.10
1534;DHT22;760;48.822;9.304;2023-06-22T09:31:24;38.60;71.10
1534;DHT22;760;48.822;9.304;2023-06-22T09:33:53;39.20;71.50
1534;DHT22;760;48.822;9.304;2023-06-22T09:36:20;39.70;70.10
1534;DHT22;760;48.822;9.304;2023-06-22T09:38:46;40.20;68.50
1534;DHT22;760;48.822;9.304;2023-06-22T09:41:11;40.20;66.70
1534;DHT22;760;48.822;9.304;2023-06-22T09:43:37;40.60;64.10
1534;DHT22;760;48.822;9.304;2023-06-22T09:46:02;41.10;64.10
1534;DHT22;760;48.822;9.304;2023-06-22T09:48:28;41.20;62.90
1534;DHT22;760;48.822;9.304;2023-06-22T09:50:55;41.40;62.10
1534;DHT22;760;48.822;9.304;2023-06-22T09:53:21;41.70;62.00
1534;DHT22;760;48.822;9.304;2023-06-22T09:55:47;41.60;59.80
1534;DHT22;760;48.822;9.304;2023-06-22T09:58:12;41.30;60.30
1534;DHT22;760;48.822;9.304;2023-06-22T10:00:38;40.90;60.50
1534;DHT22;760;48.822;9.304;2023-06-22T10:03:04;40.10;61.10
1534;DHT22;760;48.822;9.304;2023-06-22T10:05:29;39.40;63.50
1534;DHT22;760;48.822;9.304;2023-06-22T10:07:55;39.00;63.70
1534;DHT22;760;48.822;9.304;2023-06-22T10:10:20;39.00;67.50
1534;DHT22;760;48.822;9.304;2023-06-22T10:12:47;39.30;64.00
1534;DHT22;760;48.822;9.304;2023-06-22T10:15:15;39.60;62.90
1534;DHT22;760;48.822;9.304;2023-06-22T10:17:41;39.90;62.30
1534;DHT22;760;48.822;9.304;2023-06-22T10:20:07;39.50;62.00
1534;DHT22;760;48.822;9.304;2023-06-22T10:22:43;39.00;61.90
1534;DHT22;760;48.822;9.304;2023-06-22T10:25:11;38.10;63.60
1534;DHT22;760;48.822;9.304;2023-06-22T10:27:37;37.20;65.60
1534;DHT22;760;48.822;9.304;2023-06-22T10:30:06;36.50;66.90
1534;DHT22;760;48.822;9.304;2023-06-22T10:32:32;36.00;69.20
1534;DHT22;760;48.822;9.304;2023-06-22T10:34:58;35.90;69.40
1534;DHT22;760;48.822;9.304;2023-06-22T10:37:24;35.80;69.90
1534;DHT22;760;48.822;9.304;2023-06-22T10:39:49;35.80;69.90
1534;DHT22;760;48.822;9.304;2023-06-22T10:42:15;35.90;69.80
1534;DHT22;760;48.822;9.304;2023-06-22T10:44:40;35.60;70.00
1534;DHT22;760;48.822;9.304;2023-06-22T10:47:08;35.50;71.10
1534;DHT22;760;48.822;9.304;2023-06-22T10:49:34;35.60;71.30
1534;DHT22;760;48.822;9.304;2023-06-22T10:51:59;35.60;70.50
1534;DHT22;760;48.822;9.304;2023-06-22T10:54:25;35.50;72.10
1534;DHT22;760;48.822;9.304;2023-06-22T10:56:50;35.40;70.50
1534;DHT22;760;48.822;9.304;2023-06-22T10:59:16;35.40;70.00
1534;DHT22;760;48.822;9.304;2023-06-22T11:01:41;35.40;70.40
1534;DHT22;760;48.822;9.304;2023-06-22T11:04:07;35.30;70.50
1534;DHT22;760;48.822;9.304;2023-06-22T11:06:33;34.90;71.00
1534;DHT22;760;48.822;9.304;2023-06-22T11:08:58;34.60;72.00
1534;DHT22;760;48.822;9.304;2023-06-22T11:11:25;34.40;72.40
1534;DHT22;760;48.822;9.304;2023-06-22T11:13:52;34.00;73.90
1534;DHT22;760;48.822;9.304;2023-06-22T11:16:17;33.90;74.50
1534;DHT22;760;48.822;9.304;2023-06-22T11:18:43;33.80;73.50
1534;DHT22;760;48.822;9.304;2023-06-22T11:21:08;33.80;74.10
1534;DHT22;760;48.822;9.304;2023-06-22T11:23:34;33.80;74.50
1534;DHT22;760;48.822;9.304;2023-06-22T11:25:59;33.90;74.30
1534;DHT22;760;48.822;9.304;2023-06-22T11:28:25;33.90;75.00
1534;DHT22;760;48.822;9.304;2023-06-22T11:30:51;33.90;74.50
1534;DHT22;760;48.822;9.304;2023-06-22T11:33:17;33.80;75.10
1534;DHT22;760;48.822;9.304;2023-06-22T11:35:42;33.80;75.60
1534;DHT22;760;48.822;9.304;2023-06-22T11:38:08;33.80;75.50
1534;DHT22;760;48.822;9.304;2023-06-22T11:40:34;34.00;76.20
1534;DHT22;760;48.822;9.304;2023-06-22T11:42:59;34.10;75.50
1534;DHT22;760;48.822;9.304;2023-06-22T11:45:25;34.20;75.70
1534;DHT22;760;48.822;9.304;2023-06-22T11:47:51;34.40;75.20
1534;DHT22;760;48.822;9.304;2023-06-22T11:50:16;34.50;75.40
1534;DHT22;760;48.822;9.304;2023-06-22T11:52:42;34.60;75.00
1534;DHT22;760;48.822;9.304;2023-06-22T11:55:08;34.80;74.20
1534;DHT22;760;48.822;9.304;2023-06-22T11:57:35;34.80;74.10
1534;DHT22;760;48.822;9.304;2023-06-22T12:00:01;34.70;74.90
1534;DHT22;760;48.822;9.304;2023-06-22T12:02:27;34.70;75.30
1534;DHT22;760;48.822;9.304;2023-06-22T12:04:53;34.60;74.70
1534;DHT22;760;48.822;9.304;2023-06-22T12:07:21;34.60;76.10
1534;DHT22;760;48.822;9.304;2023-06-22T12:09:47;34.50;76.20
1534;DHT22;760;48.822;9.304;2023-06-22T12:12:12;34.50;76.20
1534;DHT22;760;48.822;9.304;2023-06-22T12:14:38;34.60;75.90
1534;DHT22;760;48.822;9.304;2023-06-22T12:17:03;34.70;76.10
1534;DHT22;760;48.822;9.304;2023-06-22T12:19:29;34.70;75.80
1534;DHT22;760;48.822;9.304;2023-06-22T12:21:55;34.70;76.70
1534;DHT22;760;48.822;9.304;2023-06-22T12:24:20;34.70;76.70
1534;DHT22;760;48.822;9.304;2023-06-22T12:26:46;34.50;76.90
1534;DHT22;760;48.822;9.304;2023-06-22T12:29:11;34.40;77.40
1534;DHT22;760;48.822;9.304;2023-06-22T12:31:37;34.30;79.00
1534;DHT22;760;48.822;9.304;2023-06-22T12:34:04;34.20;79.30
1534;DHT22;760;48.822;9.304;2023-06-22T12:36:30;34.20;79.10
1534;DHT22;760;48.822;9.304;2023-06-22T12:38:56;34.10;81.00
1534;DHT22;760;48.822;9.304;2023-06-22T12:41:22;33.90;80.20
1534;DHT22;760;48.822;9.304;2023-06-22T12:43:47;33.90;81.00
1534;DHT22;760;48.822;9.304;2023-06-22T12:46:13;33.90;81.70
1534;DHT22;760;48.822;9.304;2023-06-22T12:48:38;33.80;81.30
1534;DHT22;760;48.822;9.304;2023-06-22T12:51:08;33.80;80.40
1534;DHT22;760;48.822;9.304;2023-06-22T12:53:34;33.60;79.90
1534;DHT22;760;48.822;9.304;2023-06-22T12:56:00;33.40;80.40
1534;DHT22;760;48.822;9.304;2023-06-22T12:58:25;33.10;80.80
1534;DHT22;760;48.822;9.304;2023-06-22T13:00:51;32.90;82.20
1534;DHT22;760;48.822;9.304;2023-06-22T13:03:16;32.70;82.50
1534;DHT22;760;48.822;9.304;2023-06-22T13:05:42;32.60;82.40
1534;DHT22;760;48.822;9.304;2023-06-22T13:08:07;32.50;83.10
1534;DHT22;760;48.822;9.304;2023-06-22T13:10:33;32.40;83.50
1534;DHT22;760;48.822;9.304;2023-06-22T13:12:59;32.50;84.30
1534;DHT22;760;48.822;9.304;2023-06-22T13:15:29;32.50;84.90
1534;DHT22;760;48.822;9.304;2023-06-22T13:17:55;32.60;84.50
1534;DHT22;760;48.822;9.304;2023-06-22T13:20:21;32.60;83.20
1534;DHT22;760;48.822;9.304;2023-06-22T13:22:47;32.70;82.20
1534;DHT22;760;48.822;9.304;2023-06-22T13:25:12;32.70;82.00
1534;DHT22;760;48.822;9.304;2023-06-22T13:27:39;32.60;82.20
1534;DHT22;760;48.822;9.304;2023-06-22T13:30:05;32.60;82.90
1534;DHT22;760;48.822;9.304;2023-06-22T13:32:31;32.70;82.90
1534;DHT22;760;48.822;9.304;2023-06-22T13:34:57;32.90;82.30
1534;DHT22;760;48.822;9.304;2023-06-22T13:37:23;33.00;82.80
1534;DHT22;760;48.822;9.304;2023-06-22T13:39:48;33.20;82.70
1534;DHT22;760;48.822;9.304;2023-06-22T13:42:14;33.40;81.60
1534;DHT22;760;48.822;9.304;2023-06-22T13:44:40;33.50;81.80
1534;DHT22;760;48.822;9.304;2023-06-22T13:47:06;33.50;81.00
1534;DHT22;760;48.822;9.304;2023-06-22T13:49:32;33.60;79.80
1534;DHT22;760;48.822;9.304;2023-06-22T13:51:57;33.60;78.70
1534;DHT22;760;48.822;9.304;2023-06-22T13:54:23;33.70;77.50
1534;DHT22;760;48.822;9.304;2023-06-22T13:56:48;33.70;77.50
1534;DHT22;760;48.822;9.304;2023-06-22T13:59:14;33.80;78.00
1534;DHT22;760;48.822;9.304;2023-06-22T14:01:39;33.90;78.00
1534;DHT22;760;48.822;9.304;2023-06-22T14:04:06;33.90;77.70
1534;DHT22;760;48.822;9.304;2023-06-22T14:06:32;33.90;77.60
1534;DHT22;760;48.822;9.304;2023-06-22T14:08:57;33.90;77.10
1534;DHT22;760;48.822;9.304;2023-06-22T14:11:24;33.90;77.20
1534;DHT22;760;48.822;9.304;2023-06-22T14:13:49;33.80;78.00
1534;DHT22;760;48.822;9.304;2023-06-22T14:16:15;33.90;79.00
1534;DHT22;760;48.822;9.304;2023-06-22T14:18:40;33.90;77.40
1534;DHT22;760;48.822;9.304;2023-06-22T14:21:07;34.00;76.30
1534;DHT22;760;48.822;9.304;2023-06-22T14:23:32;34.00;76.60
1534;DHT22;760;48.822;9.304;2023-06-22T14:25:58;34.00;77.00
1534;DHT22;760;48.822;9.304;2023-06-22T14:28:23;34.10;75.20
1534;DHT22;760;48.822;9.304;2023-06-22T14:30:49;34.10;75.20
1534;DHT22;760;48.822;9.304;2023-06-22T14:33:14;34.10;75.70
1534;DHT22;760;48.822;9.304;2023-06-22T14:35:40;34.20;75.90
1534;DHT22;760;48.822;9.304;2023-06-22T14:38:06;34.10;74.40
1534;DHT22;760;48.822;9.304;2023-06-22T14:40:32;34.00;75.10
1534;DHT22;760;48.822;9.304;2023-06-22T14:42:57;34.00;75.40
1534;DHT22;760;48.822;9.304;2023-06-22T14:45:24;34.10;75.60
1534;DHT22;760;48.822;9.304;2023-06-22T14:47:49;34.10;74.80
1534;DHT22;760;48.822;9.304;2023-06-22T14:50:15;34.20;74.50
1534;DHT22;760;48.822;9.304;2023-06-22T14:52:41;34.20;74.20
1534;DHT22;760;48.822;9.304;2023-06-22T14:55:07;34.30;72.90
1534;DHT22;760;48.822;9.304;2023-06-22T14:57:33;34.40;71.70
1534;DHT22;760;48.822;9.304;2023-06-22T14:59:58;34.40;70.70
1534;DHT22;760;48.822;9.304;2023-06-22T15:02:24;34.40;72.00
1534;DHT22;760;48.822;9.304;2023-06-22T15:04:49;34.30;69.40
1534;DHT22;760;48.822;9.304;2023-06-22T15:07:15;34.20;68.30
1534;DHT22;760;48.822;9.304;2023-06-22T15:09:41;34.10;68.50
1534;DHT22;760;48.822;9.304;2023-06-22T15:12:08;33.90;69.20
1534;DHT22;760;48.822;9.304;2023-06-22T15:14:45;33.70;71.50
1534;DHT22;760;48.822;9.304;2023-06-22T15:17:11;33.70;71.90
1534;DHT22;760;48.822;9.304;2023-06-22T15:19:39;33.60;71.60
1534;DHT22;760;48.822;9.304;2023-06-22T15:22:06;33.40;70.10
1534;DHT22;760;48.822;9.304;2023-06-22T15:24:32;33.40;70.40
1534;DHT22;760;48.822;9.304;2023-06-22T15:26:58;33.30;69.60
1534;DHT22;760;48.822;9.304;2023-06-22T15:29:24;33.30;67.50
1534;DHT22;760;48.822;9.304;2023-06-22T15:31:51;33.30;65.50
1534;DHT22;760;48.822;9.304;2023-06-22T15:34:16;33.20;62.40
1534;DHT22;760;48.822;9.304;2023-06-22T15:36:42;33.20;62.40
1534;DHT22;760;48.822;9.304;2023-06-22T15:39:07;33.10;61.10
1534;DHT22;760;48.822;9.304;2023-06-22T15:41:33;32.90;62.80
1534;DHT22;760;48.822;9.304;2023-06-22T15:43:59;32.90;61.40
1534;DHT22;760;48.822;9.304;2023-06-22T15:46:24;32.80;61.60
1534;DHT22;760;48.822;9.304;2023-06-22T15:48:50;32.60;61.30
1534;DHT22;760;48.822;9.304;2023-06-22T15:51:15;32.50;60.40
1534;DHT22;760;48.822;9.304;2023-06-22T15:53:41;32.40;62.60
1534;DHT22;760;48.822;9.304;2023-06-22T15:56:07;32.30;61.50
1534;DHT22;760;48.822;9.304;2023-06-22T15:58:35;32.30;62.00
1534;DHT22;760;48.822;9.304;2023-06-22T16:01:02;32.30;61.40
1534;DHT22;760;48.822;9.304;2023-06-22T16:03:29;32.30;61.20
1534;DHT22;760;48.822;9.304;2023-06-22T16:05:54;32.40;62.00
1534;DHT22;760;48.822;9.304;2023-06-22T16:08:20;32.40;61.80
1534;DHT22;760;48.822;9.304;2023-06-22T16:10:45;32.40;60.60
1534;DHT22;760;48.822;9.304;2023-06-22T16:13:11;32.40;60.10
1534;DHT22;760;48.822;9.304;2023-06-22T16:15:37;32.40;60.00
1534;DHT22;760;48.822;9.304;2023-06-22T16:18:02;32.30;59.90
1534;DHT22;760;48.822;9.304;2023-06-22T16:20:28;32.20;60.50
1534;DHT22;760;48.822;9.304;2023-06-22T16:22:53;32.10;60.90
1534;DHT22;760;48.822;9.304;2023-06-22T16:25:19;32.00;61.70
1534;DHT22;760;48.822;9.304;2023-06-22T16:27:45;31.90;62.10
1534;DHT22;760;48.822;9.304;2023-06-22T16:30:11;31.80;64.00
1534;DHT22;760;48.822;9.304;2023-06-22T16:32:37;31.70;63.70
1534;DHT22;760;48.822;9.304;2023-06-22T16:35:03;31.60;64.80
1534;DHT22;760;48.822;9.304;2023-06-22T16:37:29;31.60;63.60
1534;DHT22;760;48.822;9.304;2023-06-22T16:39:54;31.50;63.90
1534;DHT22;760;48.822;9.304;2023-06-22T16:42:20;31.40;64.70
1534;DHT22;760;48.822;9.304;2023-06-22T16:44:45;31.40;65.40
1534;DHT22;760;48.822;9.304;2023-06-22T16:47:11;31.40;65.90
1534;DHT22;760;48.822;9.304;2023-06-22T16:49:37;31.30;66.40
1534;DHT22;760;48.822;9.304;2023-06-22T16:52:03;31.20;66.50
1534;DHT22;760;48.822;9.304;2023-06-22T16:54:30;31.10;67.30
1534;DHT22;760;48.822;9.304;2023-06-22T16:57:01;31.10;67.50
1534;DHT22;760;48.822;9.304;2023-06-22T16:59:27;31.00;66.30
1534;DHT22;760;48.822;9.304;2023-06-22T17:01:54;30.90;66.20
1534;DHT22;760;48.822;9.304;2023-06-22T17:04:25;30.80;66.40
1534;DHT22;760;48.822;9.304;2023-06-22T17:07:04;30.60;66.60
1534;DHT22;760;48.822;9.304;2023-06-22T17:09:33;30.50;66.70
1534;DHT22;760;48.822;9.304;2023-06-22T17:12:02;30.50;66.80
1534;DHT22;760;48.822;9.304;2023-06-22T17:14:28;30.30;67.70
1534;DHT22;760;48.822;9.304;2023-06-22T17:16:54;30.30;68.20
1534;DHT22;760;48.822;9.304;2023-06-22T17:19:21;30.20;69.00
1534;DHT22;760;48.822;9.304;2023-06-22T17:21:47;30.10;69.70
1534;DHT22;760;48.822;9.304;2023-06-22T17:24:15;30.00;70.10
1534;DHT22;760;48.822;9.304;2023-06-22T17:26:45;29.90;69.90
1534;DHT22;760;48.822;9.304;2023-06-22T17:29:12;29.70;69.80
1534;DHT22;760;48.822;9.304;2023-06-22T17:31:39;29.60;70.70
1534;DHT22;760;48.822;9.304;2023-06-22T17:34:11;29.50;70.80
1534;DHT22;760;48.822;9.304;2023-06-22T17:36:42;29.40;71.40
1534;DHT22;760;48.822;9.304;2023-06-22T17:39:12;29.40;72.00
1534;DHT22;760;48.822;9.304;2023-06-22T17:41:38;29.30;73.00
1534;DHT22;760;48.822;9.304;2023-06-22T17:44:05;29.20;72.60
1534;DHT22;760;48.822;9.304;2023-06-22T17:46:37;29.20;71.10
1534;DHT22;760;48.822;9.304;2023-06-22T17:49:12;29.10;69.60
1534;DHT22;760;48.822;9.304;2023-06-22T17:51:40;29.00;69.20
1534;DHT22;760;48.822;9.304;2023-06-22T17:54:06;28.90;69.50
1534;DHT22;760;48.822;9.304;2023-06-22T17:56:32;28.80;70.50
1534;DHT22;760;48.822;9.304;2023-06-22T17:58:58;28.80;70.50
1534;DHT22;760;48.822;9.304;2023-06-22T18:01:35;28.70;70.30
1534;DHT22;760;48.822;9.304;2023-06-22T18:04:11;28.60;71.00
1534;DHT22;760;48.822;9.304;2023-06-22T18:06:45;28.50;71.10
1534;DHT22;760;48.822;9.304;2023-06-22T18:09:12;28.40;71.80
1534;DHT22;760;48.822;9.304;2023-06-22T18:11:49;28.30;72.60
1534;DHT22;760;48.822;9.304;2023-06-22T18:14:19;28.10;73.10
1534;DHT22;760;48.822;9.304;2023-06-22T18:16:47;28.00;74.20
1534;DHT22;760;48.822;9.304;2023-06-22T18:19:14;27.90;74.30
1534;DHT22;760;48.822;9.304;2023-06-22T18:21:40;27.80;74.40
1534;DHT22;760;48.822;9.304;2023-06-22T18:24:06;27.70;74.10
1534;DHT22;760;48.822;9.304;2023-06-22T18:26:32;27.60;74.00
1534;DHT22;760;48.822;9.304;2023-06-22T18:28:58;27.50;74.80
1534;DHT22;760;48.822;9.304;2023-06-22T18:31:24;27.40;74.50
1534;DHT22;760;48.822;9.304;2023-06-22T18:33:56;27.30;74.90
1534;DHT22;760;48.822;9.304;2023-06-22T18:36:31;27.20;75.20
1534;DHT22;760;48.822;9.304;2023-06-22T18:39:01;27.10;75.80
1534;DHT22;760;48.822;9.304;2023-06-22T18:41:36;27.00;76.60
1534;DHT22;760;48.822;9.304;2023-06-22T18:44:03;26.90;77.50
1534;DHT22;760;48.822;9.304;2023-06-22T18:46:30;26.80;78.20
1534;DHT22;760;48.822;9.304;2023-06-22T18:49:03;26.80;78.90
1534;DHT22;760;48.822;9.304;2023-06-22T18:51:55;26.70;79.40
1534;DHT22;760;48.822;9.304;2023-06-22T18:54:33;26.60;79.00
1534;DHT22;760;48.822;9.304;2023-06-22T18:56:59;26.50;80.20
1534;DHT22;760;48.822;9.304;2023-06-22T19:02:10;26.40;80.00
1534;DHT22;760;48.822;9.304;2023-06-22T19:04:37;26.30;80.70
1534;DHT22;760;48.822;9.304;2023-06-22T19:07:07;26.20;80.90
1534;DHT22;760;48.822;9.304;2023-06-22T19:09:35;26.20;81.40
1534;DHT22;760;48.822;9.304;2023-06-22T19:12:18;26.10;81.70
1534;DHT22;760;48.822;9.304;2023-06-22T19:15:08;26.00;82.10
1534;DHT22;760;48.822;9.304;2023-06-22T19:17:35;26.00;82.50
1534;DHT22;760;48.822;9.304;2023-06-22T19:20:05;25.90;83.90
1534;DHT22;760;48.822;9.304;2023-06-22T19:25:21;25.80;84.60
1534;DHT22;760;48.822;9.304;2023-06-22T19:27:50;25.70;83.60
1534;DHT22;760;48.822;9.304;2023-06-22T19:30:18;25.60;84.40
1534;DHT22;760;48.822;9.304;2023-06-22T19:32:45;25.60;85.60
1534;DHT22;760;48.822;9.304;2023-06-22T19:35:18;25.50;85.80
1534;DHT22;760;48.822;9.304;2023-06-22T19:37:47;25.50;87.10
1534;DHT22;760;48.822;9.304;2023-06-22T19:40:15;25.30;89.20
1534;DHT22;760;48.822;9.304;2023-06-22T19:42:43;25.20;87.50
1534;DHT22;760;48.822;9.304;2023-06-22T19:45:13;25.10;89.50
1534;DHT22;760;48.822;9.304;2023-06-22T19:47:39;25.10;89.30
1534;DHT22;760;48.822;9.304;2023-06-22T19:50:05;25.00;89.70
1534;DHT22;760;48.822;9.304;2023-06-22T19:52:41;24.90;90.20
1534;DHT22;760;48.822;9.304;2023-06-22T19:55:11;24.80;90.40
1534;DHT22;760;48.822;9.304;2023-06-22T19:57:43;24.70;91.00
1534;DHT22;760;48.822;9.304;2023-06-22T20:00:12;24.60;91.90
1534;DHT22;760;48.822;9.304;2023-06-22T20:02:44;24.50;91.60
1534;DHT22;760;48.822;9.304;2023-06-22T20:05:11;24.50;91.80
1534;DHT22;760;48.822;9.304;2023-06-22T20:07:41;24.40;92.00
1534;DHT22;760;48.822;9.304;2023-06-22T20:10:13;24.30;92.20
1534;DHT22;760;48.822;9.304;2023-06-22T20:12:40;24.20;92.90
1534;DHT22;760;48.822;9.304;2023-06-22T20:15:22;24.20;93.20
1534;DHT22;760;48.822;9.304;2023-06-22T20:18:04;24.10;93.50
1534;DHT22;760;48.822;9.304;2023-06-22T20:20:35;24.00;93.90
1534;DHT22;760;48.822;9.304;2023-06-22T20:23:02;24.10;94.00